createdAt,value
2023-03-23T00:00:43.619Z,17.68
2023-03-23T00:03:12.494Z,17.68
2023-03-23T00:05:41.444Z,17.68
2023-03-23T00:08:10.876Z,17.68
2023-03-23T00:10:41.257Z,17.68
2023-03-23T00:37:03.506Z,17.66
2023-03-23T00:39:33.346Z,17.66
2023-03-23T00:42:02.414Z,17.65
2023-03-23T00:44:30.888Z,17.65
2023-03-23T00:46:59.521Z,17.65
2023-03-23T00:49:29.120Z,17.63
2023-03-23T00:51:58.941Z,17.62
2023-03-23T00:54:29.107Z,17.61
2023-03-23T00:59:37.092Z,17.56
2023-03-23T01:02:05.676Z,17.55
2023-03-23T01:04:36.842Z,17.53
2023-03-23T01:07:07.825Z,17.51
2023-03-23T01:09:37.535Z,17.52
2023-03-23T01:12:07.100Z,17.51
2023-03-23T01:14:37.466Z,17.51
2023-03-23T01:17:08.777Z,17.49
2023-03-23T01:19:39.641Z,17.51
2023-03-23T01:22:08.601Z,17.49
2023-03-23T01:24:39.321Z,17.49
2023-03-23T01:27:10.026Z,17.51
2023-03-23T01:29:40.391Z,17.51
2023-03-23T01:32:10.243Z,17.50
2023-03-23T01:34:41.563Z,17.49
2023-03-23T01:37:13.410Z,17.49
2023-03-23T01:39:43.348Z,17.48
2023-03-23T01:42:13.217Z,17.48
2023-03-23T01:44:42.825Z,17.45
2023-03-23T01:47:12.458Z,17.47
2023-03-23T01:49:42.306Z,17.47
2023-03-23T01:52:12.840Z,17.47
2023-03-23T01:54:42.694Z,17.47
2023-03-23T01:57:12.800Z,17.47
2023-03-23T01:59:43.040Z,17.48
2023-03-23T02:02:21.041Z,17.48
2023-03-23T02:04:51.564Z,17.48
2023-03-23T02:07:21.582Z,17.48
2023-03-23T02:09:51.738Z,17.48
2023-03-23T02:12:21.723Z,17.48
2023-03-23T02:14:53.294Z,17.48
2023-03-23T02:17:22.303Z,17.47
2023-03-23T02:19:52.429Z,17.47
2023-03-23T02:22:22.345Z,17.47
2023-03-23T02:24:52.304Z,17.48
2023-03-23T02:27:22.258Z,17.48
2023-03-23T02:29:52.473Z,17.49
2023-03-23T02:32:22.686Z,17.49
2023-03-23T02:34:52.963Z,17.49
2023-03-23T02:37:22.952Z,17.49
2023-03-23T02:39:52.833Z,17.48
2023-03-23T02:42:23.216Z,17.49
2023-03-23T02:44:56.653Z,17.49
2023-03-23T02:47:26.509Z,17.49
2023-03-23T02:49:56.352Z,17.49
2023-03-23T02:52:26.207Z,17.48
2023-03-23T02:54:56.129Z,17.49
2023-03-23T02:57:40.354Z,17.48
2023-03-23T03:00:12.605Z,17.48
2023-03-23T03:02:43.204Z,17.48
2023-03-23T03:05:13.000Z,17.50
2023-03-23T03:07:43.595Z,17.49
2023-03-23T03:10:17.165Z,17.49
2023-03-23T03:12:47.072Z,17.49
2023-03-23T03:15:15.356Z,17.49
2023-03-23T03:17:45.927Z,17.49
2023-03-23T03:20:17.023Z,17.50
2023-03-23T03:22:47.517Z,17.49
2023-03-23T03:25:17.851Z,17.50
2023-03-23T03:27:49.771Z,17.49
2023-03-23T03:30:24.440Z,17.51
2023-03-23T03:32:54.323Z,17.51
2023-03-23T03:35:24.122Z,17.50
2023-03-23T03:37:52.900Z,17.51
2023-03-23T03:40:23.142Z,17.51
2023-03-23T03:42:53.233Z,17.51
2023-03-23T03:45:22.696Z,17.51
2023-03-23T03:47:52.577Z,17.51
2023-03-23T03:50:21.599Z,17.51
2023-03-23T03:52:52.254Z,17.51
2023-03-23T03:55:22.796Z,17.51
2023-03-23T03:57:53.803Z,17.50
2023-03-23T04:01:02.281Z,17.49
2023-03-23T04:03:36.810Z,17.49
2023-03-23T04:06:16.137Z,17.49
2023-03-23T04:08:47.019Z,17.49
2023-03-23T04:11:36.167Z,17.49
2023-03-23T04:14:35.061Z,17.49
2023-03-23T04:17:23.555Z,17.51
2023-03-23T04:19:53.376Z,17.46
2023-03-23T04:22:23.362Z,17.51
2023-03-23T04:25:07.036Z,17.53
2023-03-23T04:27:38.781Z,17.55
2023-03-23T04:30:08.606Z,17.57
2023-03-23T04:33:03.904Z,17.58
2023-03-23T04:35:33.826Z,17.59
2023-03-23T04:38:13.830Z,17.61
2023-03-23T04:40:44.637Z,17.62
2023-03-23T04:43:21.929Z,17.63
2023-03-23T04:46:00.354Z,17.66
2023-03-23T04:48:32.564Z,17.71
2023-03-23T04:51:10.156Z,17.74
2023-03-23T04:53:39.825Z,17.76
2023-03-23T04:56:08.069Z,17.78
2023-03-23T04:58:44.333Z,17.81
2023-03-23T05:01:36.597Z,17.83
2023-03-23T05:04:20.080Z,17.87
2023-03-23T05:07:03.109Z,17.89
2023-03-23T05:09:37.675Z,17.95
2023-03-23T05:12:07.334Z,17.99
2023-03-23T05:14:41.060Z,18.02
2023-03-23T05:17:12.914Z,18.09
2023-03-23T05:19:41.889Z,18.10
2023-03-23T05:22:29.402Z,18.09
2023-03-23T05:24:59.356Z,18.07
2023-03-23T05:27:29.307Z,18.06
2023-03-23T05:30:12.006Z,18.06
2023-03-23T05:32:42.169Z,18.02
2023-03-23T05:35:31.730Z,18.05
2023-03-23T05:38:02.516Z,18.03
2023-03-23T05:40:33.096Z,18.03
2023-03-23T05:43:13.510Z,18.03
2023-03-23T05:46:03.525Z,18.02
2023-03-23T05:48:33.507Z,18.01
2023-03-23T05:51:04.116Z,18.00
2023-03-23T05:53:38.002Z,18.00
2023-03-23T05:56:08.354Z,17.98
2023-03-23T05:58:56.661Z,17.97
2023-03-23T06:01:27.907Z,17.97
2023-03-23T06:03:59.285Z,17.96
2023-03-23T06:06:40.556Z,17.97
2023-03-23T06:09:11.432Z,17.94
2023-03-23T06:11:51.017Z,17.98
2023-03-23T06:14:43.506Z,17.97
2023-03-23T06:17:15.276Z,17.98
2023-03-23T06:19:45.668Z,17.98
2023-03-23T06:22:17.929Z,17.99
2023-03-23T06:25:07.179Z,18.00
2023-03-23T06:27:41.188Z,18.00
2023-03-23T06:30:10.430Z,18.00
2023-03-23T06:32:40.406Z,17.98
2023-03-23T06:35:12.375Z,18.03
2023-03-23T06:37:40.681Z,18.03
2023-03-23T06:40:30.769Z,18.01
2023-03-23T06:43:07.845Z,17.99
2023-03-23T06:45:49.414Z,18.01
2023-03-23T06:48:47.755Z,18.01
2023-03-23T06:51:18.274Z,18.01
2023-03-23T06:53:50.361Z,18.02
2023-03-23T06:56:18.848Z,18.01
2023-03-23T06:58:48.718Z,18.03
2023-03-23T07:01:18.837Z,18.04
2023-03-23T07:03:56.645Z,18.06
2023-03-23T07:06:38.400Z,18.03
2023-03-23T07:09:10.667Z,18.07
2023-03-23T07:11:39.455Z,18.09
2023-03-23T07:14:16.640Z,18.12
2023-03-23T07:16:47.272Z,18.14
2023-03-23T07:19:17.573Z,18.17
2023-03-23T07:21:47.445Z,18.21
2023-03-23T07:24:15.789Z,18.23
2023-03-23T07:26:59.561Z,18.27
2023-03-23T07:29:30.727Z,18.30
2023-03-23T07:32:08.542Z,18.31
2023-03-23T07:34:38.025Z,18.26
2023-03-23T07:37:21.161Z,18.26
2023-03-23T07:39:51.339Z,18.26
2023-03-23T07:42:21.611Z,18.24
2023-03-23T07:44:58.319Z,18.25
2023-03-23T07:47:34.178Z,18.26
2023-03-23T07:50:03.391Z,18.26
2023-03-23T07:52:38.377Z,18.27
2023-03-23T07:55:07.915Z,18.27
2023-03-23T07:57:51.865Z,18.29
2023-03-23T08:00:20.238Z,18.30
2023-03-23T08:02:49.442Z,18.32
2023-03-23T08:05:40.328Z,18.33
2023-03-23T08:08:32.416Z,18.33
2023-03-23T08:11:21.197Z,18.34
2023-03-23T08:14:09.725Z,18.34
2023-03-23T08:16:39.578Z,18.33
2023-03-23T08:19:09.046Z,18.34
2023-03-23T08:21:58.147Z,18.34
2023-03-23T08:24:28.019Z,18.36
2023-03-23T08:27:06.536Z,18.35
2023-03-23T08:29:46.190Z,18.37
2023-03-23T08:32:40.782Z,18.45
2023-03-23T08:35:31.097Z,18.47
2023-03-23T08:38:14.802Z,18.54
2023-03-23T08:40:55.874Z,18.57
2023-03-23T08:43:47.184Z,18.59
2023-03-23T08:46:17.070Z,18.60
2023-03-23T08:49:14.210Z,18.61
2023-03-23T08:51:55.266Z,18.62
2023-03-23T08:54:31.915Z,18.65
2023-03-23T08:57:23.849Z,18.67
2023-03-23T09:00:08.440Z,18.70
2023-03-23T09:02:57.665Z,18.74
2023-03-23T09:05:36.593Z,18.77
2023-03-23T09:08:21.068Z,18.83
2023-03-23T09:10:51.321Z,18.93
2023-03-23T09:13:21.746Z,18.98
2023-03-23T09:15:55.406Z,19.08
2023-03-23T09:18:27.844Z,19.29
2023-03-23T09:20:58.125Z,19.65
2023-03-23T09:23:28.427Z,19.90
2023-03-23T09:25:58.236Z,20.01
2023-03-23T09:28:27.036Z,20.31
2023-03-23T09:30:56.325Z,20.73
2023-03-23T09:33:26.706Z,20.96
2023-03-23T09:36:01.636Z,21.09
2023-03-23T09:38:30.425Z,21.11
2023-03-23T09:41:01.046Z,21.07
2023-03-23T09:43:31.543Z,21.10
2023-03-23T09:46:00.519Z,21.15
2023-03-23T09:48:30.736Z,21.16
2023-03-23T09:51:01.091Z,21.17
2023-03-23T09:53:30.877Z,21.23
2023-03-23T09:56:01.706Z,21.46
2023-03-23T09:58:33.441Z,21.69
2023-03-23T10:01:03.892Z,21.85
2023-03-23T10:03:33.358Z,21.86
2023-03-23T10:06:03.422Z,21.89
2023-03-23T10:08:32.716Z,21.96
2023-03-23T10:11:02.997Z,22.28
2023-03-23T10:13:33.804Z,22.78
2023-03-23T10:16:04.135Z,23.28
2023-03-23T10:18:33.923Z,23.65
2023-03-23T10:21:03.202Z,23.99
2023-03-23T10:23:33.098Z,24.16
2023-03-23T10:26:03.650Z,24.22
2023-03-23T10:28:33.000Z,24.39
2023-03-23T10:31:02.928Z,24.58
2023-03-23T10:33:32.229Z,24.71
2023-03-23T10:36:02.652Z,24.78
2023-03-23T10:38:32.754Z,24.85
2023-03-23T10:41:01.072Z,24.87
2023-03-23T10:43:31.398Z,24.82
2023-03-23T10:46:02.076Z,24.70
2023-03-23T10:48:32.591Z,24.53
2023-03-23T10:51:02.848Z,24.31
2023-03-23T10:53:33.136Z,24.15
2023-03-23T10:56:03.438Z,24.08
2023-03-23T10:58:33.543Z,24.13
2023-03-23T11:01:05.227Z,24.31
2023-03-23T11:03:34.748Z,24.57
2023-03-23T11:06:04.961Z,24.79
2023-03-23T11:08:34.128Z,24.95
2023-03-23T11:11:02.854Z,25.06
2023-03-23T11:13:33.245Z,25.17
2023-03-23T11:16:03.212Z,25.22
2023-03-23T11:18:33.474Z,25.10
2023-03-23T11:21:03.389Z,24.87
2023-03-23T11:23:33.771Z,24.57
2023-03-23T11:26:04.135Z,24.27
2023-03-23T11:28:34.157Z,23.96
2023-03-23T11:31:02.531Z,23.69
2023-03-23T11:33:31.054Z,23.47
2023-03-23T11:35:59.755Z,23.30
2023-03-23T11:38:29.825Z,23.36
2023-03-23T11:41:02.409Z,23.52
2023-03-23T11:43:31.874Z,23.56
2023-03-23T11:46:02.356Z,23.54
2023-03-23T11:48:32.773Z,23.57
2023-03-23T11:51:03.142Z,23.47
2023-03-23T11:53:33.443Z,23.44
2023-03-23T11:56:03.422Z,23.51
2023-03-23T11:58:33.839Z,23.60
2023-03-23T12:01:03.238Z,23.61
2023-03-23T12:03:32.619Z,23.55
2023-03-23T12:06:02.910Z,23.49
2023-03-23T12:08:33.220Z,23.38
2023-03-23T12:11:03.896Z,23.25
2023-03-23T12:13:35.165Z,23.09
2023-03-23T12:16:05.962Z,22.95
2023-03-23T12:18:36.351Z,22.74
2023-03-23T12:21:06.595Z,22.66
2023-03-23T12:23:44.838Z,22.51
2023-03-23T12:26:15.220Z,22.38
2023-03-23T12:28:45.531Z,22.24
2023-03-23T12:31:16.106Z,22.09
2023-03-23T12:33:46.556Z,21.96
2023-03-23T12:36:15.969Z,21.83
2023-03-23T12:38:45.545Z,21.72
2023-03-23T12:41:15.035Z,21.64
2023-03-23T12:43:44.926Z,21.54
2023-03-23T12:46:14.240Z,21.47
2023-03-23T12:48:44.418Z,21.43
2023-03-23T12:51:14.387Z,21.40
2023-03-23T12:53:43.738Z,21.37
2023-03-23T12:56:14.052Z,21.34
2023-03-23T12:58:44.670Z,21.33
2023-03-23T13:01:14.190Z,21.25
2023-03-23T13:03:43.625Z,21.34
2023-03-23T13:06:14.064Z,21.55
2023-03-23T13:08:43.487Z,21.57
2023-03-23T13:11:13.411Z,21.52
2023-03-23T13:13:48.828Z,21.85
2023-03-23T13:16:18.403Z,23.50
2023-03-23T13:18:49.001Z,24.89
2023-03-23T13:21:18.686Z,25.89
2023-03-23T13:23:47.834Z,26.68
2023-03-23T13:26:16.172Z,27.41
2023-03-23T13:28:44.677Z,27.24
2023-03-23T13:31:14.170Z,28.01
2023-03-23T13:33:43.482Z,28.71
2023-03-23T13:36:18.828Z,28.32
2023-03-23T13:38:49.328Z,28.02
2023-03-23T13:41:19.756Z,29.01
2023-03-23T13:43:49.575Z,29.49
2023-03-23T13:46:18.594Z,28.40
2023-03-23T13:48:47.366Z,26.97
2023-03-23T13:51:17.744Z,25.88
2023-03-23T13:53:48.178Z,25.08
2023-03-23T13:56:17.615Z,24.52
2023-03-23T13:58:46.653Z,24.07
2023-03-23T14:01:15.401Z,23.73
2023-03-23T14:03:45.791Z,23.41
2023-03-23T14:06:16.200Z,23.17
2023-03-23T14:09:12.189Z,22.95
2023-03-23T14:11:42.259Z,23.09
2023-03-23T14:14:10.981Z,23.76
2023-03-23T14:16:40.512Z,24.91
2023-03-23T14:19:09.259Z,24.61
2023-03-23T14:21:39.035Z,24.14
2023-03-23T14:24:08.785Z,25.15
2023-03-23T14:26:37.779Z,26.82
2023-03-23T14:29:08.140Z,26.64
2023-03-23T14:31:37.980Z,27.33
2023-03-23T14:34:07.355Z,28.54
2023-03-23T14:36:37.777Z,28.13
2023-03-23T14:39:07.864Z,28.63
2023-03-23T14:41:36.064Z,28.65
2023-03-23T14:44:05.286Z,28.43
2023-03-23T14:46:34.143Z,28.96
2023-03-23T14:49:05.316Z,28.50
2023-03-23T14:51:35.693Z,27.68
2023-03-23T14:54:06.133Z,26.87
2023-03-23T14:56:36.053Z,26.03
2023-03-23T14:59:05.283Z,25.46
2023-03-23T15:01:35.257Z,24.94
2023-03-23T15:04:03.936Z,24.53
2023-03-23T15:06:34.187Z,24.18
2023-03-23T15:09:03.489Z,23.88
2023-03-23T15:11:33.336Z,23.68
2023-03-23T15:14:02.812Z,23.53
2023-03-23T15:16:32.137Z,23.35
2023-03-23T15:19:02.468Z,23.23
2023-03-23T15:21:32.671Z,23.14
2023-03-23T15:24:02.667Z,23.07
2023-03-23T15:26:31.372Z,23.00
2023-03-23T15:29:01.936Z,22.83
2023-03-23T15:31:30.609Z,22.68
2023-03-23T15:33:59.273Z,22.55
2023-03-23T15:36:29.468Z,22.43
2023-03-23T15:38:59.781Z,22.28
2023-03-23T15:41:30.308Z,22.18
2023-03-23T15:44:00.360Z,22.10
2023-03-23T15:46:29.095Z,22.01
2023-03-23T15:48:58.941Z,21.97
2023-03-23T15:51:28.332Z,21.94
2023-03-23T15:54:02.884Z,21.84
2023-03-23T15:56:35.514Z,21.79
2023-03-23T15:57:53.209Z,17.61
2023-03-23T15:59:04.422Z,21.72
2023-03-23T16:01:34.763Z,21.64
2023-03-23T16:03:08.797Z,17.61
2023-03-23T16:04:05.153Z,21.52
2023-03-23T16:06:35.576Z,21.41
2023-03-23T16:08:25.157Z,17.61
2023-03-23T16:09:04.570Z,21.33
2023-03-23T16:11:32.958Z,21.25
2023-03-23T16:13:40.254Z,17.62
2023-03-23T16:14:01.946Z,21.18
2023-03-23T16:16:30.666Z,21.12
2023-03-23T16:18:55.165Z,17.62
2023-03-23T16:19:01.615Z,21.08
2023-03-23T16:21:30.404Z,21.04
2023-03-23T16:23:59.481Z,21.00
2023-03-23T16:24:10.189Z,17.62
2023-03-23T16:26:27.810Z,20.95
2023-03-23T16:29:06.138Z,20.94
2023-03-23T16:29:46.694Z,17.63
2023-03-23T16:31:41.615Z,20.95
2023-03-23T16:34:12.075Z,20.92
2023-03-23T16:35:00.502Z,17.62
2023-03-23T16:36:42.381Z,20.90
2023-03-23T16:39:12.697Z,20.85
2023-03-23T16:40:16.127Z,17.63
2023-03-23T16:41:43.020Z,20.81
2023-03-23T16:44:12.962Z,20.80
2023-03-23T16:45:31.164Z,17.64
2023-03-23T16:46:43.299Z,20.79
2023-03-23T16:49:13.661Z,20.76
2023-03-23T16:50:46.170Z,17.65
2023-03-23T16:51:43.940Z,20.72
2023-03-23T16:54:13.770Z,20.69
2023-03-23T16:56:01.190Z,17.65
2023-03-23T16:56:44.190Z,20.64
2023-03-23T16:59:14.258Z,20.59
2023-03-23T17:01:16.500Z,17.65
2023-03-23T17:01:43.721Z,20.56
2023-03-23T17:04:14.085Z,20.54
2023-03-23T17:06:32.176Z,17.65
2023-03-23T17:06:44.190Z,20.52
2023-03-23T17:09:12.489Z,20.49
2023-03-23T17:11:43.348Z,20.46
2023-03-23T17:11:47.204Z,17.64
2023-03-23T17:14:16.272Z,20.43
2023-03-23T17:16:46.934Z,20.44
2023-03-23T17:17:02.192Z,17.65
2023-03-23T17:19:16.457Z,20.45
2023-03-23T17:21:47.000Z,20.46
2023-03-23T17:22:17.214Z,17.65
2023-03-23T17:24:16.386Z,20.43
2023-03-23T17:26:46.691Z,20.42
2023-03-23T17:27:32.119Z,17.65
2023-03-23T17:29:17.034Z,20.39
2023-03-23T17:31:46.928Z,20.36
2023-03-23T17:32:47.178Z,17.64
2023-03-23T17:34:18.022Z,20.36
2023-03-23T17:36:48.643Z,20.33
2023-03-23T17:38:01.900Z,17.65
2023-03-23T17:39:18.487Z,20.31
2023-03-23T17:41:50.983Z,20.28
2023-03-23T17:43:17.159Z,17.65
2023-03-23T17:44:19.848Z,20.24
2023-03-23T17:46:49.336Z,20.21
2023-03-23T17:48:32.157Z,17.65
2023-03-23T17:49:18.306Z,20.17
2023-03-23T17:51:48.131Z,20.16
2023-03-23T17:53:47.195Z,17.65
2023-03-23T17:54:18.457Z,20.12
2023-03-23T17:56:48.914Z,20.10
2023-03-23T17:59:02.178Z,17.65
2023-03-23T17:59:20.201Z,20.05
2023-03-23T18:01:50.588Z,20.02
2023-03-23T18:04:17.283Z,17.65
2023-03-23T18:04:21.072Z,19.99
2023-03-23T18:06:50.008Z,19.97
2023-03-23T18:09:19.926Z,19.95
2023-03-23T18:09:32.171Z,17.65
2023-03-23T18:11:48.546Z,19.89
2023-03-23T18:14:19.068Z,19.89
2023-03-23T18:14:47.223Z,17.64
2023-03-23T18:16:48.623Z,19.87
2023-03-23T18:19:18.979Z,19.87
2023-03-23T18:20:02.169Z,17.64
2023-03-23T18:21:49.093Z,19.85
2023-03-23T18:24:19.349Z,19.82
2023-03-23T18:25:17.195Z,17.64
2023-03-23T18:26:49.778Z,19.80
2023-03-23T18:29:20.167Z,19.78
2023-03-23T18:30:32.148Z,17.65
2023-03-23T18:31:50.538Z,19.77
2023-03-23T18:34:20.921Z,19.75
2023-03-23T18:35:47.233Z,17.65
2023-03-23T18:36:51.300Z,19.74
2023-03-23T18:39:21.153Z,19.72
2023-03-23T18:41:02.180Z,17.66
2023-03-23T18:41:50.479Z,19.72
2023-03-23T18:44:20.745Z,19.68
2023-03-23T18:46:17.246Z,17.66
2023-03-23T18:46:50.725Z,19.68
2023-03-23T18:49:21.128Z,19.67
2023-03-23T18:51:31.948Z,17.66
2023-03-23T18:51:50.819Z,19.64
2023-03-23T18:54:20.262Z,19.62
2023-03-23T18:56:48.243Z,17.66
2023-03-23T18:56:50.323Z,19.62
2023-03-23T18:59:23.441Z,19.59
2023-03-23T19:01:53.769Z,19.56
2023-03-23T19:02:03.576Z,17.66
2023-03-23T19:04:24.160Z,19.55
2023-03-23T19:06:54.710Z,19.54
2023-03-23T19:07:19.168Z,17.66
2023-03-23T19:09:24.597Z,19.52
2023-03-23T19:11:54.637Z,19.53
2023-03-23T19:12:34.532Z,17.63
2023-03-23T19:14:24.261Z,19.52
2023-03-23T19:16:53.672Z,19.50
2023-03-23T19:17:50.214Z,17.65
2023-03-23T19:19:25.022Z,19.51
2023-03-23T19:21:55.240Z,19.49
2023-03-23T19:23:05.252Z,17.66
2023-03-23T19:24:25.606Z,19.48
2023-03-23T19:26:56.030Z,19.48
2023-03-23T19:29:05.589Z,17.66
2023-03-23T19:29:27.300Z,19.46
2023-03-23T19:31:57.326Z,19.46
2023-03-23T19:33:55.188Z,17.66
2023-03-23T19:34:27.631Z,19.45
2023-03-23T19:37:05.393Z,19.44
2023-03-23T19:39:10.204Z,17.62
2023-03-23T19:39:36.689Z,19.43
2023-03-23T19:42:07.189Z,19.41
2023-03-23T19:44:25.629Z,17.60
2023-03-23T19:44:36.721Z,19.40
2023-03-23T19:47:07.185Z,19.36
2023-03-23T19:49:37.345Z,19.37
2023-03-23T19:49:40.946Z,17.65
2023-03-23T19:52:10.520Z,19.35
2023-03-23T19:54:42.211Z,19.35
2023-03-23T19:54:56.213Z,17.67
2023-03-23T19:57:11.151Z,19.33
2023-03-23T19:59:42.249Z,19.29
2023-03-23T20:00:10.975Z,17.66
2023-03-23T20:02:11.738Z,19.30
2023-03-23T20:04:41.891Z,19.29
2023-03-23T20:05:26.656Z,17.66
2023-03-23T20:07:12.363Z,19.28
2023-03-23T20:09:41.235Z,19.26
2023-03-23T20:10:41.978Z,17.67
2023-03-23T20:12:09.907Z,19.26
2023-03-23T20:14:38.782Z,19.25
2023-03-23T20:16:00.081Z,17.68
2023-03-23T20:17:08.272Z,19.25
2023-03-23T20:19:38.184Z,19.23
2023-03-23T20:21:18.951Z,17.74
2023-03-23T20:22:07.253Z,19.21
2023-03-23T20:24:35.600Z,19.18
2023-03-23T20:26:35.736Z,17.82
2023-03-23T20:27:04.555Z,19.16
2023-03-23T20:29:37.738Z,19.15
2023-03-23T20:31:51.533Z,17.82
2023-03-23T20:32:08.146Z,19.13
2023-03-23T20:34:37.883Z,19.10
2023-03-23T20:37:06.925Z,19.08
2023-03-23T20:37:07.494Z,17.85
2023-03-23T20:39:35.582Z,19.05
2023-03-23T20:42:05.447Z,19.04
2023-03-23T20:42:23.306Z,17.87
2023-03-23T20:44:35.050Z,19.01
2023-03-23T20:47:05.453Z,19.01
2023-03-23T20:47:38.214Z,17.88
2023-03-23T20:49:35.859Z,18.98
2023-03-23T20:52:05.174Z,18.96
2023-03-23T20:52:53.255Z,17.90
2023-03-23T20:54:35.545Z,18.95
2023-03-23T20:57:05.800Z,18.94
2023-03-23T20:58:08.265Z,17.93
2023-03-23T20:59:34.106Z,18.91
2023-03-23T21:02:03.452Z,18.90
2023-03-23T21:03:23.165Z,17.94
2023-03-23T21:04:33.396Z,18.89
2023-03-23T21:07:02.562Z,18.87
2023-03-23T21:08:38.156Z,17.92
2023-03-23T21:09:30.341Z,18.85
2023-03-23T21:11:59.453Z,18.83
2023-03-23T21:13:53.395Z,17.97
2023-03-23T21:14:28.489Z,18.83
2023-03-23T21:16:57.517Z,18.81
2023-03-23T21:19:08.214Z,17.98
2023-03-23T21:19:27.920Z,18.80
2023-03-23T21:21:57.357Z,18.78
2023-03-23T21:24:23.209Z,17.98
2023-03-23T21:24:26.152Z,18.77
2023-03-23T21:26:56.123Z,18.75
2023-03-23T21:29:25.471Z,18.74
2023-03-23T21:29:38.545Z,17.99
2023-03-23T21:32:07.493Z,18.72
2023-03-23T21:34:37.413Z,18.70
2023-03-23T21:34:54.206Z,18.02
2023-03-23T21:37:07.817Z,18.70
2023-03-23T21:39:37.708Z,18.68
2023-03-23T21:40:09.473Z,18.02
2023-03-23T21:42:07.143Z,18.67
2023-03-23T21:44:37.479Z,18.66
2023-03-23T21:45:25.192Z,18.04
2023-03-23T21:47:07.556Z,18.61
2023-03-23T21:49:35.816Z,18.63
2023-03-23T21:50:40.199Z,18.04
2023-03-23T21:52:10.713Z,18.61
2023-03-23T21:54:41.061Z,18.61
2023-03-23T21:55:55.195Z,18.05
2023-03-23T21:57:10.885Z,18.59
2023-03-23T21:59:42.817Z,18.59
2023-03-23T22:01:10.204Z,18.06
2023-03-23T22:02:13.230Z,18.56
2023-03-23T22:04:43.515Z,18.56
2023-03-23T22:06:25.228Z,18.08
2023-03-23T22:07:13.971Z,18.53
2023-03-23T22:09:43.446Z,18.51
2023-03-23T22:11:40.163Z,18.09
2023-03-23T22:12:13.525Z,18.48
2023-03-23T22:14:42.238Z,18.49
2023-03-23T22:17:12.588Z,18.46
2023-03-23T22:17:33.217Z,18.11
2023-03-23T22:19:43.021Z,18.46
2023-03-23T22:22:13.304Z,18.46
2023-03-23T22:22:48.225Z,18.12
2023-03-23T22:24:43.177Z,18.45
2023-03-23T22:27:12.342Z,18.44
2023-03-23T22:28:03.216Z,18.13
2023-03-23T22:29:40.431Z,18.44
2023-03-23T22:32:08.524Z,18.43
2023-03-23T22:33:18.188Z,18.13
2023-03-23T22:34:36.999Z,18.42
2023-03-23T22:37:05.785Z,18.40
2023-03-23T22:38:33.180Z,18.13
2023-03-23T22:39:36.093Z,18.42
2023-03-23T22:42:06.424Z,18.42
2023-03-23T22:43:48.160Z,18.14
2023-03-23T22:44:36.328Z,18.41
2023-03-23T22:47:05.289Z,18.41
2023-03-23T22:49:03.192Z,18.15
2023-03-23T22:49:37.308Z,18.40
2023-03-23T22:52:09.870Z,18.38
2023-03-23T22:54:18.282Z,18.14
2023-03-23T22:54:40.223Z,18.38
2023-03-23T22:57:09.840Z,18.37
2023-03-23T22:59:33.164Z,18.13
2023-03-23T22:59:39.033Z,18.34
2023-03-23T23:02:09.620Z,18.36
2023-03-23T23:04:39.127Z,18.35
2023-03-23T23:04:48.592Z,18.12
2023-03-23T23:07:12.770Z,18.34
2023-03-23T23:09:44.158Z,18.34
2023-03-23T23:10:04.238Z,18.12
2023-03-23T23:12:14.732Z,18.32
2023-03-23T23:14:44.317Z,18.32
2023-03-23T23:15:20.243Z,18.12
2023-03-23T23:17:13.736Z,18.31
2023-03-23T23:19:44.170Z,18.30
2023-03-23T23:20:35.209Z,18.11
2023-03-23T23:22:19.205Z,18.30
2023-03-23T23:24:50.079Z,18.28
2023-03-23T23:25:51.147Z,18.10
2023-03-23T23:27:19.630Z,18.27
2023-03-23T23:29:49.065Z,18.27
2023-03-23T23:31:06.040Z,18.09
2023-03-23T23:32:18.541Z,18.26
2023-03-23T23:34:47.996Z,18.25
2023-03-23T23:36:21.005Z,18.09
2023-03-23T23:37:18.450Z,18.25
2023-03-23T23:39:48.791Z,18.23
2023-03-23T23:41:36.548Z,18.08
2023-03-23T23:42:19.132Z,18.23
2023-03-23T23:44:49.468Z,18.23
2023-03-23T23:46:53.282Z,18.08
2023-03-23T23:47:19.409Z,18.22
2023-03-23T23:49:49.874Z,18.20
2023-03-23T23:52:09.520Z,18.10
2023-03-23T23:52:20.164Z,18.21
2023-03-23T23:54:50.575Z,18.21
2023-03-23T23:57:20.444Z,18.20
2023-03-23T23:57:25.242Z,18.13
2023-03-23T23:59:49.890Z,18.17
